Map

Track Data

SID SEASON NUMBER BASIN SUBBASIN NAME ISO_TIME NATURE LAT LON WMO_WIND WMO_PRES WMO_AGENCY TRACK_TYPE DIST2LAND LANDFALL IFLAG USA_AGENCY USA_ATCF_ID USA_LAT USA_LON USA_RECORD USA_STATUS USA_WIND USA_PRES USA_SSHS USA_R34_NE USA_R34_SE USA_R34_SW USA_R34_NW USA_R50_NE USA_R50_SE USA_R50_SW USA_R50_NW USA_R64_NE USA_R64_SE USA_R64_SW USA_R64_NW USA_POCI USA_ROCI USA_RMW USA_EYE TOKYO_LAT TOKYO_LON TOKYO_GRADE TOKYO_WIND TOKYO_PRES TOKYO_R50_DIR TOKYO_R50_LONG TOKYO_R50_SHORT TOKYO_R30_DIR TOKYO_R30_LONG TOKYO_R30_SHORT TOKYO_LAND CMA_LAT CMA_LON CMA_CAT CMA_WIND CMA_PRES HKO_LAT HKO_LON HKO_CAT HKO_WIND HKO_PRES NEWDELHI_LAT NEWDELHI_LON NEWDELHI_GRADE NEWDELHI_WIND NEWDELHI_PRES NEWDELHI_CI NEWDELHI_DP NEWDELHI_POCI REUNION_LAT REUNION_LON REUNION_TYPE REUNION_WIND REUNION_PRES REUNION_TNUM REUNION_CI REUNION_RMW REUNION_R34_NE REUNION_R34_SE REUNION_R34_SW REUNION_R34_NW REUNION_R50_NE REUNION_R50_SE REUNION_R50_SW REUNION_R50_NW REUNION_R64_NE REUNION_R64_SE REUNION_R64_SW REUNION_R64_NW BOM_LAT BOM_LON BOM_TYPE BOM_WIND BOM_PRES BOM_TNUM BOM_CI BOM_RMW BOM_R34_NE BOM_R34_SE BOM_R34_SW BOM_R34_NW BOM_R50_NE BOM_R50_SE BOM_R50_SW BOM_R50_NW BOM_R64_NE BOM_R64_SE BOM_R64_SW BOM_R64_NW BOM_ROCI BOM_POCI BOM_EYE BOM_POS_METHOD BOM_PRES_METHOD NADI_LAT NADI_LON NADI_CAT NADI_WIND NADI_PRES WELLINGTON_LAT WELLINGTON_LON WELLINGTON_WIND WELLINGTON_PRES DS824_LAT DS824_LON DS824_STAGE DS824_WIND DS824_PRES TD9636_LAT TD9636_LON TD9636_STAGE TD9636_WIND TD9636_PRES TD9635_LAT TD9635_LON TD9635_WIND TD9635_PRES TD9635_ROCI NEUMANN_LAT NEUMANN_LON NEUMANN_CLASS NEUMANN_WIND NEUMANN_PRES MLC_LAT MLC_LON MLC_CLASS MLC_WIND MLC_PRES USA_GUST BOM_GUST BOM_GUST_PER REUNION_GUST REUNION_GUST_PER USA_SEAHGT USA_SEARAD_NE USA_SEARAD_SE USA_SEARAD_SW USA_SEARAD_NW STORM_SPEED STORM_DIR
2013221N11244 2013 44 EP MM NOT_NAMED 2013-08-09 06:00:00 NR 11.0000 243.800 20 1008 hurdat_epa main 1485 1470 O_____________ hurdat_epa CP032013 11.0000 -116.200 DB 20 1008 -3 2 27
2013221N11244 2013 44 EP MM NOT_NAMED 2013-08-09 09:00:00 NR 11.1000 243.860 main 1470 1460 P_____________ CP032013 11.1000 -116.140 DB 20 1007 -3 2 8
2013221N11244 2013 44 EP MM NOT_NAMED 2013-08-09 12:00:00 NR 11.2000 243.800 20 1007 hurdat_epa main 1465 1459 O_____________ hurdat_epa CP032013 11.2000 -116.200 DB 20 1007 -3 4 303
2013221N11244 2013 44 EP MM NOT_NAMED 2013-08-09 15:00:00 NR 11.3001 243.545 main 1469 1464 P_____________ CP032013 11.3001 -116.455 DB 20 1007 -3 6 289
2013221N11244 2013 44 EP MM NOT_NAMED 2013-08-09 18:00:00 NR 11.4000 243.200 20 1007 hurdat_epa main 1475 1475 O_____________ hurdat_epa CP032013 11.4000 -116.800 DB 20 1007 -3 7 286
2013221N11244 2013 44 EP MM NOT_NAMED 2013-08-09 21:00:00 NR 11.4849 242.907 main 1481 1481 P_____________ CP032013 11.4849 -117.093 DB 20 1007 -3 6 289
2013221N11244 2013 44 EP MM NOT_NAMED 2013-08-10 00:00:00 NR 11.6000 242.600 20 1007 hurdat_epa main 1487 1483 O_____________ hurdat_epa CP032013 11.6000 -117.400 DB 20 1007 -3 7 294
2013221N11244 2013 44 EP MM NOT_NAMED 2013-08-10 03:00:00 NR 11.7851 242.235 main 1491 1484 P_____________ CP032013 11.7851 -117.765 DB 22 1007 -3 8 300
2013221N11244 2013 44 EP MM NOT_NAMED 2013-08-10 06:00:00 NR 12.0000 241.900 25 1008 hurdat_epa main 1490 1484 O_____________ hurdat_epa CP032013 12.0000 -118.100 DB 25 1008 -3 7 307
2013221N11244 2013 44 EP MM NOT_NAMED 2013-08-10 09:00:00 NR 12.1999 241.670 main 1484 1479 P_____________ CP032013 12.1999 -118.330 DB 25 1008 -3 6 316
2013221N11244 2013 44 EP MM NOT_NAMED 2013-08-10 12:00:00 NR 12.4000 241.500 25 1008 hurdat_epa main 1479 1467 O_____________ hurdat_epa CP032013 12.4000 -118.500 DB 25 1008 -3 5 324
2013221N11244 2013 44 EP MM NOT_NAMED 2013-08-10 15:00:00 NR 12.6149 241.365 main 1467 1456 P_____________ CP032013 12.6149 -118.635 DB 25 1008 -3 5 324
2013221N11244 2013 44 EP MM NOT_NAMED 2013-08-10 18:00:00 NR 12.8000 241.200 25 1008 hurdat_epa main 1463 1461 O_____________ hurdat_epa CP032013 12.8000 -118.800 DB 25 1008 -3 5 306
2013221N11244 2013 44 EP MM NOT_NAMED 2013-08-10 21:00:00 NR 12.9150 240.937 main 1475 1473 P_____________ CP032013 12.9150 -119.063 DB 25 1008 -3 6 289
2013221N11244 2013 44 EP MM NOT_NAMED 2013-08-11 00:00:00 NR 13.0000 240.600 25 1008 hurdat_epa main 1487 1487 O_____________ hurdat_epa CP032013 13.0000 -119.400 DB 25 1008 -3 7 286
2013221N11244 2013 44 EP MM NOT_NAMED 2013-08-11 03:00:00 NR 13.1149 240.238 main 1507 1506 P_____________ CP032013 13.1149 -119.762 DB 25 1008 -3 8 284
2013221N11244 2013 44 EP MM NOT_NAMED 2013-08-11 06:00:00 NR 13.2000 239.800 25 1008 hurdat_epa main 1528 1528 O_____________ hurdat_epa CP032013 13.2000 -120.200 DB 25 1008 -3 9 276
2013221N11244 2013 44 EP MM NOT_NAMED 2013-08-11 09:00:00 NR 13.2150 239.272 main 1566 1566 P_____________ CP032013 13.2150 -120.728 DB 25 1008 -3 11 270
2013221N11244 2013 44 EP MM NOT_NAMED 2013-08-11 12:00:00 NR 13.2000 238.700 25 1008 hurdat_epa main 1608 1608 O_____________ hurdat_epa CP032013 13.2000 -121.300 DB 25 1008 -3 11 269
2013221N11244 2013 44 EP MM NOT_NAMED 2013-08-11 15:00:00 NR 13.1924 238.142 main 1646 1646 P_____________ CP032013 13.1924 -121.858 DB 25 1008 -3 11 270
2013221N11244 2013 44 EP MM NOT_NAMED 2013-08-11 18:00:00 NR 13.2000 237.600 25 1008 hurdat_epa main 1680 1680 O_____________ hurdat_epa CP032013 13.2000 -122.400 DB 25 1008 -3 10 273
2013221N11244 2013 44 EP MM NOT_NAMED 2013-08-11 21:00:00 NR 13.2423 237.100 main 1714 1712 P_____________ CP032013 13.2423 -122.900 DB 25 1008 -3 10 276
2013221N11244 2013 44 EP MM NOT_NAMED 2013-08-12 00:00:00 NR 13.3000 236.600 25 1008 hurdat_epa main 1740 1740 O_____________ hurdat_epa CP032013 13.3000 -123.400 DB 25 1008 -3 10 276
2013221N11244 2013 44 EP MM NOT_NAMED 2013-08-12 03:00:00 NR 13.3574 236.058 main 1768 1768 P_____________ CP032013 13.3574 -123.942 DB 25 1008 -3 11 275
2013221N11244 2013 44 EP MM NOT_NAMED 2013-08-12 06:00:00 NR 13.4000 235.500 25 1008 hurdat_epa main 1813 1813 O_____________ hurdat_epa CP032013 13.4000 -124.500 DB 25 1008 -3 11 273
2013221N11244 2013 44 EP MM NOT_NAMED 2013-08-12 09:00:00 NR 13.4148 234.957 main 1850 1850 P_____________ CP032013 13.4148 -125.043 DB 25 1008 -3 11 270
2013221N11244 2013 44 EP MM NOT_NAMED 2013-08-12 12:00:00 NR 13.4000 234.400 25 1008 hurdat_epa main 1897 1897 O_____________ hurdat_epa CP032013 13.4000 -125.600 DB 25 1008 -3 11 267
2013221N11244 2013 44 EP MM NOT_NAMED 2013-08-12 15:00:00 NR 13.3496 233.845 main 1951 1951 P_____________ CP032013 13.3496 -126.155 DB 25 1008 -3 12 265
2013221N11244 2013 44 EP MM NOT_NAMED 2013-08-12 18:00:00 DS 13.3000 233.200 25 1008 hurdat_epa main 1999 1999 O_____________ hurdat_epa CP032013 13.3000 -126.800 LO 25 1008 -3 14 268
2013221N11244 2013 44 EP MM NOT_NAMED 2013-08-12 21:00:00 DS 13.2997 232.418 main 2064 2064 P_____________ CP032013 13.2997 -127.582 LO 25 1008 -3 17 270
2013221N11244 2013 44 EP MM NOT_NAMED 2013-08-13 00:00:00 DS 13.3000 231.500 25 1008 hurdat_epa main 2133 2133 O_____________ hurdat_epa CP032013 13.3000 -128.500 LO 25 1008 -3 19 268
2013221N11244 2013 44 EP MM NOT_NAMED 2013-08-13 03:00:00 DS 13.2496 230.502 main 2211 2211 P_____________ CP032013 13.2496 -129.498 LO 25 1008 -3 20 267
2013221N11244 2013 44 EP MM NOT_NAMED 2013-08-13 06:00:00 DS 13.2000 229.400 25 1008 hurdat_epa main 2290 2290 O_____________ hurdat_epa CP032013 13.2000 -130.600 LO 25 1008 -3 22 269
2013221N11244 2013 44 EP MM NOT_NAMED 2013-08-13 09:00:00 DS 13.1999 228.208 main 2380 2380 P_____________ CP032013 13.1999 -131.792 LO 25 1008 -3 23 270
2013221N11244 2013 44 EP MM NOT_NAMED 2013-08-13 12:00:00 DS 13.2000 227.000 25 1008 hurdat_epa main 2428 2316 O_____________ hurdat_epa CP032013 13.2000 -133.000 LO 25 1008 -3 23 269
2013221N11244 2013 44 EP MM NOT_NAMED 2013-08-13 15:00:00 DS 13.1498 225.847 main 2310 2219 P_____________ CP032013 13.1498 -134.153 LO 25 1008 -3 21 267
2013221N11244 2013 44 EP MM NOT_NAMED 2013-08-13 18:00:00 DS 13.1000 224.800 25 1008 hurdat_epa main 2209 2119 O_____________ hurdat_epa CP032013 13.1000 -135.200 LO 25 1008 -3 19 268
2013221N11244 2013 44 EP MM NOT_NAMED 2013-08-13 21:00:00 DS 13.0921 223.883 main 2119 2039 P_____________ CP032013 13.0921 -136.117 LO 25 1008 -3 17 270
2013221N11244 2013 44 EP MM NOT_NAMED 2013-08-14 00:00:00 DS 13.1000 223.100 25 1008 hurdat_epa main 2039 1983 O_____________ hurdat_epa CP032013 13.1000 -136.900 LO 25 1008 -3 14 268
2013221N11244 2013 44 EP MM NOT_NAMED 2013-08-14 03:00:00 DS 13.0391 222.472 main 1983 1909 P_____________ CP032013 13.0391 -137.528 LO 25 1008 -3 13 270
2013221N11244 2013 44 EP MM NOT_NAMED 2013-08-14 06:00:00 DS 13.1000 221.800 25 1008 hurdat_epa main 1909 1802 O_____________ hurdat_epa CP032013 13.1000 -138.200 LO 25 1008 -3 16 285
2013221N11244 2013 44 EP MM NOT_NAMED 2013-08-14 09:00:00 DS 13.4777 220.846 main 1792 1685 P_____________ CP032013 13.4777 -139.154 LO 25 1008 -3 21 292
2013221N11244 2013 44 EP CP NOT_NAMED 2013-08-14 12:00:00 DS 13.9000 219.800 25 1008 hurdat_epa main 1675 1578 O_____________ hurdat_epa CP032013 13.9000 -140.200 LO 25 1008 -3 21 288
2013221N11244 2013 44 EP CP NOT_NAMED 2013-08-14 15:00:00 DS 14.1248 218.820 main 1568 1475 P_____________ CP032013 14.1248 -141.180 LO 25 1008 -3 19 279
2013221N11244 2013 44 EP CP NOT_NAMED 2013-08-14 18:00:00 DS 14.2000 217.900 25 1008 hurdat_epa main 1475 1403 O_____________ hurdat_epa CP032013 14.2000 -142.100 LO 25 1008 -3 17 270
2013221N11244 2013 44 EP CP NOT_NAMED 2013-08-14 21:00:00 DS 14.1296 217.070 main 1403 1332 P_____________ CP032013 14.1296 -142.930 LO 25 1008 -3 16 263
2013221N11244 2013 44 EP CP NOT_NAMED 2013-08-15 00:00:00 NR 14.0000 216.300 25 1009 hurdat_epa main 1332 1272 O_____________ hurdat_epa CP032013 14.0000 -143.700 DB 25 1009 -3 15 263
2013221N11244 2013 44 EP CP NOT_NAMED 2013-08-15 03:00:00 NR 13.9417 215.588 main 1272 1208 P_____________ CP032013 13.9417 -144.412 DB 25 1009 -3 15 266
2013221N11244 2013 44 EP CP NOT_NAMED 2013-08-15 06:00:00 NR 13.9000 214.800 25 1010 hurdat_epa main 1198 1116 O_____________ hurdat_epa CP032013 13.9000 -145.200 DB 25 1010 -3 18 267
2013221N11244 2013 44 EP CP NOT_NAMED 2013-08-15 09:00:00 NR 13.8430 213.757 main 1116 1030 P_____________ CP032013 13.8430 -146.243 DB 25 1010 -3 20 267
2013221N11244 2013 44 EP CP NOT_NAMED 2013-08-15 12:00:00 NR 13.8000 212.700 25 1010 hurdat_epa main 1022 957 O_____________ hurdat_epa CP032013 13.8000 -147.300 DB 25 1010 -3 18 268
2013221N11244 2013 44 EP CP NOT_NAMED 2013-08-15 15:00:00 NR 13.7765 211.892 main 957 895 P_____________ CP032013 13.7765 -148.108 DB 25 1010 -3 16 270
2013221N11244 2013 44 EP CP NOT_NAMED 2013-08-15 18:00:00 NR 13.8000 211.100 25 1010 hurdat_epa main 895 819 O_____________ hurdat_epa CP032013 13.8000 -148.900 DB 25 1010 -3 17 274
2013221N11244 2013 44 EP CP NOT_NAMED 2013-08-15 21:00:00 NR 13.8852 210.108 main 812 742 P_____________ CP032013 13.8852 -149.892 DB 25 1010 -3 20 276
2013221N11244 2013 44 EP CP NOT_NAMED 2013-08-16 00:00:00 NR 14.0000 209.100 25 1010 hurdat_epa main 736 679 O_____________ hurdat_epa CP032013 14.0000 -150.900 DB 25 1010 -3 1011 60 60 18 277
2013221N11244 2013 44 EP CP NOT_NAMED 2013-08-16 03:00:00 NR 14.0991 208.257 main 679 626 P_____________ CP032013 14.0991 -151.743 DB 25 1010 -3 1011 70 60 17 277
2013221N11244 2013 44 EP CP NOT_NAMED 2013-08-16 06:00:00 NR 14.2000 207.400 25 1010 hurdat_epa main 621 561 O_____________ hurdat_epa CP032013 14.2000 -152.600 DB 25 1010 -3 1011 80 60 18 276
2013221N11244 2013 44 EP CP NOT_NAMED 2013-08-16 09:00:00 NR 14.2999 206.380 main 561 517 P_____________ CP032013 14.2999 -153.620 DB 25 1010 -3 1011 70 60 20 276
2013221N11244 2013 44 EP CP NOT_NAMED 2013-08-16 12:00:00 NR 14.4000 205.300 25 1010 hurdat_epa main 514 492 O_____________ hurdat_epa CP032013 14.4000 -154.700 DB 25 1010 -3 1011 60 60 21 276
2013221N11244 2013 44 EP CP NOT_NAMED 2013-08-16 15:00:00 NR 14.5076 204.205 main 492 485 P_____________ CP032013 14.5076 -155.795 DB 25 1010 -3 1011 70 60 20 276
2013221N11244 2013 44 EP CP NOT_NAMED 2013-08-16 18:00:00 NR 14.6000 203.200 25 1010 hurdat_epa main 495 495 O_____________ hurdat_epa CP032013 14.6000 -156.800 DB 25 1010 -3 1011 80 60 18 275
2013221N11244 2013 44 EP CP NOT_NAMED 2013-08-16 21:00:00 NR 14.6493 202.405 main 522 511 P_____________ CP032013 14.6493 -157.595 DB 25 1010 -3 1011 70 60 15 274
2013221N11244 2013 44 EP CP NOT_NAMED 2013-08-17 00:00:00 NR 14.7000 201.700 25 1010 hurdat_epa main 545 545 O_____________ hurdat_epa CP032013 14.7000 -158.300 DB 25 1010 -3 1011 60 60 14 276
2013221N11244 2013 44 EP CP NOT_NAMED 2013-08-17 03:00:00 NR 14.8000 200.928 main 584 584 P_____________ CP032013 14.8000 -159.072 DB 25 1010 -3 1011 70 60 15 278
2013221N11244 2013 44 EP CP NOT_NAMED 2013-08-17 06:00:00 NR 14.9000 200.200 25 1010 hurdat_epa main 625 625 O_____________ hurdat_epa CP032013 14.9000 -159.800 DB 25 1010 -3 1011 80 60 13 277
2013221N11244 2013 44 EP CP NOT_NAMED 2013-08-17 09:00:00 NR 14.9495 199.600 main 670 662 P_____________ CP032013 14.9495 -160.400 DB 25 1010 -3 1011 70 60 12 275
2013221N11244 2013 44 EP CP NOT_NAMED 2013-08-17 12:00:00 NR 15.0000 199.000 25 1010 hurdat_epa main 710 710 O_____________ hurdat_epa CP032013 15.0000 -161.000 DB 25 1010 -3 1011 60 60 13 277
2013221N11244 2013 44 EP CP NOT_NAMED 2013-08-17 15:00:00 NR 15.0995 198.310 main 761 761 P_____________ CP032013 15.0995 -161.690 DB 25 1010 -3 1011 60 60 15 278
2013221N11244 2013 44 EP CP NOT_NAMED 2013-08-17 18:00:00 NR 15.2000 197.500 25 1010 hurdat_epa main 812 812 O_____________ hurdat_epa CP032013 15.2000 -162.500 DB 25 1010 -3 1011 60 60 17 275
2013221N11244 2013 44 EP CP NOT_NAMED 2013-08-17 21:00:00 NR 15.2496 196.567 main 849 844 P_____________ CP032013 15.2496 -163.433 DB 25 1010 -3 1011 70 60 19 273
2013221N11244 2013 44 EP CP NOT_NAMED 2013-08-18 00:00:00 NR 15.3000 195.500 25 1010 hurdat_epa main 898 898 O_____________ hurdat_epa CP032013 15.3000 -164.500 DB 25 1010 -3 1011 80 60 22 274
2013221N11244 2013 44 EP CP NOT_NAMED 2013-08-18 03:00:00 NR 15.3924 194.323 main 964 964 P_____________ CP032013 15.3924 -165.677 DB 25 1010 -3 1011 80 60 23 275
2013221N11244 2013 44 EP CP NOT_NAMED 2013-08-18 06:00:00 NR 15.5000 193.100 25 1010 hurdat_epa main 1042 1042 O_____________ hurdat_epa CP032013 15.5000 -166.900 DB 25 1010 -3 1011 80 60 24 274
2013221N11244 2013 44 EP CP NOT_NAMED 2013-08-18 09:00:00 NR 15.5778 191.867 main 1129 1129 P_____________ CP032013 15.5778 -168.133 DB 25 1010 -3 1011 80 60 22 275
2013221N11244 2013 44 EP CP NOT_NAMED 2013-08-18 12:00:00 NR 15.7000 190.800 25 1010 hurdat_epa main 1213 1213 O_____________ hurdat_epa CP032013 15.7000 -169.200 DB 25 1010 -3 1011 80 60 18 282
2013221N11244 2013 44 EP CP NOT_NAMED 2013-08-18 15:00:00 NR 15.9416 190.053 main 1261 1261 P_____________ CP032013 15.9416 -169.947 DB 25 1010 -3 1011 80 60 13 292
2013221N11244 2013 44 EP CP NOT_NAMED 2013-08-18 18:00:00 NR 16.2000 189.500 25 1010 hurdat_epa main 1297 1297 O_____________ hurdat_epa CP032013 16.2000 -170.500 DB 25 1010 -3 1011 80 60 11 291
2013221N11244 2013 44 EP CP NOT_NAMED 2013-08-18 21:00:00 NR 16.3498 188.970 main 1337 1337 P_____________ CP032013 16.3498 -171.030 DB 25 1010 -3 1011 85 52 10 287
2013221N11244 2013 44 EP CP NOT_NAMED 2013-08-19 00:00:00 NR 16.5000 188.500 25 1010 hurdat_epa main 1372 1372 O_____________ hurdat_epa CP032013 16.5000 -171.500 DB 25 1010 -3 1011 90 45 10 293
2013221N11244 2013 44 EP CP NOT_NAMED 2013-08-19 03:00:00 NR 16.7273 188.050 main 1409 1404 P_____________ CP032013 16.7273 -171.950 DB 25 1010 -3 1011 90 45 10 300
2013221N11244 2013 44 EP CP NOT_NAMED 2013-08-19 06:00:00 NR 17.0000 187.600 25 1010 hurdat_epa main 1433 1433 O_____________ hurdat_epa CP032013 17.0000 -172.400 DB 25 1010 -3 1011 90 45 11 303
2013221N11244 2013 44 EP CP NOT_NAMED 2013-08-19 09:00:00 NR 17.2998 187.122 main 1468 1468 P_____________ CP032013 17.2998 -172.878 DB 25 1010 -3 1011 90 45 11 302
2013221N11244 2013 44 EP CP NOT_NAMED 2013-08-19 12:00:00 NR 17.6000 186.600 25 1010 hurdat_epa main 1504 1504 O_____________ hurdat_epa CP032013 17.6000 -173.400 DB 25 1010 -3 1011 90 45 12 297
2013221N11244 2013 44 EP CP NOT_NAMED 2013-08-19 15:00:00 NR 17.8425 186.007 main 1556 1552 P_____________ CP032013 17.8425 -173.993 DB 27 1009 -3 1011 100 52 12 294
2013221N11244 2013 44 EP CP NOT_NAMED 2013-08-19 18:00:00 TS 18.1000 185.400 30 1008 hurdat_epa main 1605 1605 O_____________ hurdat_epa CP032013 18.1000 -174.600 TD 30 1008 -1 1011 110 60 40 12 301
2013221N11244 2013 44 EP CP NOT_NAMED 2013-08-19 21:00:00 TS 18.4794 184.880 main 1642 1642 P_____________ CP032013 18.4794 -175.120 TD 30 1008 -1 1011 110 60 13 304
2013221N11244 2013 44 EP CP NOT_NAMED 2013-08-20 00:00:00 TS 18.8000 184.300 30 1008 hurdat_epa main 1694 1694 O_____________ hurdat_epa CP032013 18.8000 -175.700 TD 30 1008 -1 1011 110 60 40 12 45 45 13 287
2013221N11244 2013 44 EP CP NOT_NAMED 2013-08-20 03:00:00 TS 18.8727 183.529 main 1772 1772 P_____________ CP032013 18.8727 -176.471 TD 30 1008 -1 1011 110 60 12 45 45 15 274
2013221N11244 2013 44 EP CP NOT_NAMED 2013-08-20 06:00:00 TS 18.9000 182.700 30 1008 hurdat_epa main 1854 1854 O_____________ hurdat_epa CP032013 18.9000 -177.300 TD 30 1008 -1 1011 110 60 40 12 45 45 15 277
2013221N11244 2013 44 EP CP NOT_NAMED 2013-08-20 09:00:00 TS 19.0546 181.942 main 1931 1931 P_____________ CP032013 19.0546 -178.058 TD 30 1008 -1 1011 110 60 12 45 45 15 286
2013221N11244 2013 44 EP CP NOT_NAMED 2013-08-20 12:00:00 TS 19.3000 181.200 30 1008 hurdat_epa main 1998 1998 O_____________ hurdat_epa CP032013 19.3000 -178.800 TD 30 1008 -1 1011 110 60 40 12 45 45 15 293
2013221N11244 2013 44 EP CP NOT_NAMED 2013-08-20 15:00:00 TS 19.6497 180.450 main 2063 2063 P_____________ CP032013 19.6497 -179.550 TD 25 1009 -1 1012 110 60 16 296
2013221N11244 2013 44 WP MM NOT_NAMED 2013-08-20 18:00:00 DS 20.0000 179.700 main 2137 2137 O_____________ hurdat_epa CP032013 20.0000 179.700 LO 20 1010 -3 1013 110 60 15 293
2013221N11244 2013 44 WP MM NOT_NAMED 2013-08-20 21:00:00 DS 20.2381 178.950 main 2216 2214 P_____________ CP032013 20.2381 178.950 LO 17 1011 -3 1014 100 60 15 286
2013221N11244 2013 44 WP MM NOT_NAMED 2013-08-21 00:00:00 NR 20.4000 178.200 main 2285 O_____________ hurdat_epa CP032013 20.4000 178.200 DB 15 1012 -3 1015 90 60 14 283

About IBTrACS Database

This database is a web-friendly format of International Best Track Archive for Climate Stewardship (IBTrACS), a global best track data archive curated by NOAA dating back to 1842.

Updated: 2021-10-19